sensor_id;sensor_type;location;lat;lon;timestamp;P1;durP1;ratioP1;P2;durP2;ratioP2
75167;SDS011;63748;48.088;11.476;2022-09-25T00:01:11;3.85;;;3.20;;
75167;SDS011;63748;48.088;11.476;2022-09-25T00:03:37;4.93;;;3.63;;
75167;SDS011;63748;48.088;11.476;2022-09-25T00:06:07;5.60;;;3.35;;
75167;SDS011;63748;48.088;11.476;2022-09-25T00:08:34;4.30;;;3.28;;
75167;SDS011;63748;48.088;11.476;2022-09-25T00:11:04;6.97;;;3.50;;
75167;SDS011;63748;48.088;11.476;2022-09-25T00:13:31;4.32;;;3.40;;
75167;SDS011;63748;48.088;11.476;2022-09-25T00:15:58;5.32;;;3.55;;
75167;SDS011;63748;48.088;11.476;2022-09-25T00:18:24;4.68;;;3.20;;
75167;SDS011;63748;48.088;11.476;2022-09-25T00:21:11;4.88;;;3.33;;
75167;SDS011;63748;48.088;11.476;2022-09-25T00:23:38;5.47;;;3.58;;
75167;SDS011;63748;48.088;11.476;2022-09-25T00:26:05;6.00;;;3.42;;
75167;SDS011;63748;48.088;11.476;2022-09-25T00:28:32;5.70;;;3.47;;
75167;SDS011;63748;48.088;11.476;2022-09-25T00:31:00;6.15;;;3.53;;
75167;SDS011;63748;48.088;11.476;2022-09-25T00:33:26;5.63;;;3.28;;
75167;SDS011;63748;48.088;11.476;2022-09-25T00:35:52;5.03;;;3.60;;
75167;SDS011;63748;48.088;11.476;2022-09-25T00:38:18;3.63;;;3.08;;
75167;SDS011;63748;48.088;11.476;2022-09-25T00:40:44;5.22;;;3.08;;
75167;SDS011;63748;48.088;11.476;2022-09-25T00:43:14;3.67;;;3.08;;
75167;SDS011;63748;48.088;11.476;2022-09-25T00:45:41;4.57;;;2.97;;
75167;SDS011;63748;48.088;11.476;2022-09-25T00:48:09;5.03;;;3.33;;
75167;SDS011;63748;48.088;11.476;2022-09-25T00:53:16;5.10;;;3.30;;
75167;SDS011;63748;48.088;11.476;2022-09-25T00:55:43;3.95;;;2.97;;
75167;SDS011;63748;48.088;11.476;2022-09-25T00:58:10;4.40;;;3.17;;
75167;SDS011;63748;48.088;11.476;2022-09-25T01:00:37;5.28;;;3.47;;
75167;SDS011;63748;48.088;11.476;2022-09-25T01:03:03;4.63;;;2.70;;
75167;SDS011;63748;48.088;11.476;2022-09-25T01:05:30;4.47;;;3.42;;
75167;SDS011;63748;48.088;11.476;2022-09-25T01:07:58;4.88;;;3.30;;
75167;SDS011;63748;48.088;11.476;2022-09-25T01:10:24;4.93;;;3.95;;
75167;SDS011;63748;48.088;11.476;2022-09-25T01:12:51;5.55;;;3.55;;
75167;SDS011;63748;48.088;11.476;2022-09-25T01:15:19;5.13;;;3.63;;
75167;SDS011;63748;48.088;11.476;2022-09-25T01:17:57;5.07;;;3.20;;
75167;SDS011;63748;48.088;11.476;2022-09-25T01:30:43;5.45;;;3.22;;
75167;SDS011;63748;48.088;11.476;2022-09-25T01:33:13;6.43;;;3.58;;
75167;SDS011;63748;48.088;11.476;2022-09-25T01:35:56;5.35;;;3.63;;
75167;SDS011;63748;48.088;11.476;2022-09-25T01:45:52;4.85;;;3.88;;
75167;SDS011;63748;48.088;11.476;2022-09-25T01:48:31;4.70;;;3.45;;
75167;SDS011;63748;48.088;11.476;2022-09-25T01:51:04;4.20;;;3.35;;
75167;SDS011;63748;48.088;11.476;2022-09-25T01:53:32;5.65;;;4.15;;
75167;SDS011;63748;48.088;11.476;2022-09-25T01:56:01;5.07;;;3.17;;
75167;SDS011;63748;48.088;11.476;2022-09-25T02:01:31;5.25;;;3.17;;
75167;SDS011;63748;48.088;11.476;2022-09-25T02:04:03;4.90;;;3.20;;
75167;SDS011;63748;48.088;11.476;2022-09-25T02:06:30;5.50;;;3.97;;
75167;SDS011;63748;48.088;11.476;2022-09-25T02:09:39;5.20;;;3.72;;
75167;SDS011;63748;48.088;11.476;2022-09-25T02:11:47;6.88;;;3.78;;
75167;SDS011;63748;48.088;11.476;2022-09-25T02:14:22;4.68;;;3.75;;
75167;SDS011;63748;48.088;11.476;2022-09-25T02:16:50;4.63;;;3.35;;
75167;SDS011;63748;48.088;11.476;2022-09-25T02:19:17;5.57;;;3.58;;
75167;SDS011;63748;48.088;11.476;2022-09-25T02:22:07;4.78;;;3.10;;
75167;SDS011;63748;48.088;11.476;2022-09-25T02:24:38;4.85;;;3.10;;
75167;SDS011;63748;48.088;11.476;2022-09-25T02:27:05;4.93;;;3.10;;
75167;SDS011;63748;48.088;11.476;2022-09-25T02:29:31;4.68;;;3.33;;
75167;SDS011;63748;48.088;11.476;2022-09-25T02:32:04;4.53;;;3.67;;
75167;SDS011;63748;48.088;11.476;2022-09-25T02:34:32;5.72;;;3.45;;
75167;SDS011;63748;48.088;11.476;2022-09-25T02:36:58;5.50;;;3.22;;
75167;SDS011;63748;48.088;11.476;2022-09-25T02:39:25;4.78;;;3.13;;
75167;SDS011;63748;48.088;11.476;2022-09-25T02:49:33;5.15;;;3.47;;
75167;SDS011;63748;48.088;11.476;2022-09-25T02:59:46;4.88;;;3.10;;
75167;SDS011;63748;48.088;11.476;2022-09-25T03:02:14;5.65;;;3.63;;
75167;SDS011;63748;48.088;11.476;2022-09-25T03:04:41;4.88;;;3.55;;
75167;SDS011;63748;48.088;11.476;2022-09-25T03:07:07;5.95;;;3.22;;
75167;SDS011;63748;48.088;11.476;2022-09-25T03:09:34;3.83;;;3.00;;
75167;SDS011;63748;48.088;11.476;2022-09-25T03:12:02;4.88;;;3.78;;
75167;SDS011;63748;48.088;11.476;2022-09-25T03:14:31;3.75;;;3.10;;
75167;SDS011;63748;48.088;11.476;2022-09-25T03:16:58;4.18;;;3.10;;
75167;SDS011;63748;48.088;11.476;2022-09-25T03:19:26;3.85;;;3.08;;
75167;SDS011;63748;48.088;11.476;2022-09-25T03:21:52;4.40;;;2.97;;
75167;SDS011;63748;48.088;11.476;2022-09-25T03:24:19;4.80;;;3.40;;
75167;SDS011;63748;48.088;11.476;2022-09-25T03:26:45;9.95;;;3.47;;
75167;SDS011;63748;48.088;11.476;2022-09-25T03:29:12;4.50;;;3.42;;
75167;SDS011;63748;48.088;11.476;2022-09-25T03:31:38;5.75;;;3.70;;
75167;SDS011;63748;48.088;11.476;2022-09-25T03:34:06;4.15;;;3.20;;
75167;SDS011;63748;48.088;11.476;2022-09-25T03:36:32;5.38;;;3.42;;
75167;SDS011;63748;48.088;11.476;2022-09-25T03:38:59;4.80;;;3.28;;
75167;SDS011;63748;48.088;11.476;2022-09-25T03:41:26;4.22;;;3.05;;
75167;SDS011;63748;48.088;11.476;2022-09-25T03:43:52;4.85;;;3.35;;
75167;SDS011;63748;48.088;11.476;2022-09-25T03:46:22;4.20;;;3.00;;
75167;SDS011;63748;48.088;11.476;2022-09-25T03:48:48;4.05;;;2.92;;
75167;SDS011;63748;48.088;11.476;2022-09-25T03:51:16;5.47;;;2.95;;
75167;SDS011;63748;48.088;11.476;2022-09-25T03:53:43;4.30;;;3.03;;
75167;SDS011;63748;48.088;11.476;2022-09-25T03:56:13;3.88;;;3.20;;
75167;SDS011;63748;48.088;11.476;2022-09-25T03:58:41;4.97;;;2.85;;
75167;SDS011;63748;48.088;11.476;2022-09-25T04:01:07;5.10;;;3.47;;
75167;SDS011;63748;48.088;11.476;2022-09-25T04:03:35;4.07;;;2.90;;
75167;SDS011;63748;48.088;11.476;2022-09-25T04:06:01;3.33;;;2.72;;
75167;SDS011;63748;48.088;11.476;2022-09-25T04:08:29;4.38;;;3.08;;
75167;SDS011;63748;48.088;11.476;2022-09-25T04:10:56;3.70;;;2.80;;
75167;SDS011;63748;48.088;11.476;2022-09-25T04:13:27;3.88;;;2.80;;
75167;SDS011;63748;48.088;11.476;2022-09-25T04:18:20;4.18;;;3.28;;
75167;SDS011;63748;48.088;11.476;2022-09-25T04:20:46;5.45;;;3.35;;
75167;SDS011;63748;48.088;11.476;2022-09-25T04:23:12;4.47;;;3.40;;
75167;SDS011;63748;48.088;11.476;2022-09-25T04:25:38;5.60;;;3.20;;
75167;SDS011;63748;48.088;11.476;2022-09-25T04:28:05;4.57;;;2.83;;
75167;SDS011;63748;48.088;11.476;2022-09-25T04:30:31;3.95;;;3.50;;
75167;SDS011;63748;48.088;11.476;2022-09-25T04:32:57;4.18;;;3.10;;
75167;SDS011;63748;48.088;11.476;2022-09-25T04:35:42;5.15;;;2.88;;
75167;SDS011;63748;48.088;11.476;2022-09-25T04:38:08;3.95;;;2.95;;
75167;SDS011;63748;48.088;11.476;2022-09-25T04:40:35;3.20;;;2.78;;
75167;SDS011;63748;48.088;11.476;2022-09-25T04:43:02;3.50;;;2.72;;
75167;SDS011;63748;48.088;11.476;2022-09-25T04:45:29;4.40;;;3.10;;
75167;SDS011;63748;48.088;11.476;2022-09-25T04:47:55;4.75;;;3.40;;
75167;SDS011;63748;48.088;11.476;2022-09-25T04:50:23;4.35;;;3.15;;
75167;SDS011;63748;48.088;11.476;2022-09-25T04:52:50;5.15;;;3.08;;
75167;SDS011;63748;48.088;11.476;2022-09-25T04:55:16;4.55;;;3.38;;
75167;SDS011;63748;48.088;11.476;2022-09-25T04:57:42;4.53;;;3.00;;
75167;SDS011;63748;48.088;11.476;2022-09-25T05:00:08;5.20;;;2.67;;
75167;SDS011;63748;48.088;11.476;2022-09-25T05:02:35;3.97;;;2.70;;
75167;SDS011;63748;48.088;11.476;2022-09-25T05:05:02;4.30;;;3.45;;
75167;SDS011;63748;48.088;11.476;2022-09-25T05:07:28;4.43;;;3.03;;
75167;SDS011;63748;48.088;11.476;2022-09-25T05:09:54;5.38;;;3.42;;
75167;SDS011;63748;48.088;11.476;2022-09-25T05:12:20;5.78;;;3.22;;
75167;SDS011;63748;48.088;11.476;2022-09-25T05:14:46;3.80;;;2.95;;
75167;SDS011;63748;48.088;11.476;2022-09-25T05:17:12;7.10;;;3.50;;
75167;SDS011;63748;48.088;11.476;2022-09-25T05:19:38;5.25;;;2.80;;
75167;SDS011;63748;48.088;11.476;2022-09-25T05:22:04;3.40;;;2.97;;
75167;SDS011;63748;48.088;11.476;2022-09-25T05:24:30;4.35;;;3.13;;
75167;SDS011;63748;48.088;11.476;2022-09-25T05:26:56;4.20;;;3.03;;
75167;SDS011;63748;48.088;11.476;2022-09-25T05:29:23;4.45;;;3.17;;
75167;SDS011;63748;48.088;11.476;2022-09-25T05:31:49;3.92;;;2.97;;
75167;SDS011;63748;48.088;11.476;2022-09-25T05:34:15;3.40;;;2.75;;
75167;SDS011;63748;48.088;11.476;2022-09-25T05:36:41;3.67;;;2.92;;
75167;SDS011;63748;48.088;11.476;2022-09-25T05:39:08;3.50;;;2.90;;
75167;SDS011;63748;48.088;11.476;2022-09-25T05:41:35;4.68;;;2.90;;
75167;SDS011;63748;48.088;11.476;2022-09-25T05:44:01;3.95;;;3.05;;
75167;SDS011;63748;48.088;11.476;2022-09-25T05:46:31;3.85;;;2.95;;
75167;SDS011;63748;48.088;11.476;2022-09-25T05:49:00;4.22;;;2.80;;
75167;SDS011;63748;48.088;11.476;2022-09-25T05:51:26;3.75;;;2.72;;
75167;SDS011;63748;48.088;11.476;2022-09-25T05:53:53;3.72;;;3.00;;
75167;SDS011;63748;48.088;11.476;2022-09-25T05:56:19;4.18;;;3.13;;
75167;SDS011;63748;48.088;11.476;2022-09-25T05:58:48;3.80;;;2.95;;
75167;SDS011;63748;48.088;11.476;2022-09-25T06:01:14;4.40;;;2.90;;
75167;SDS011;63748;48.088;11.476;2022-09-25T06:03:40;4.63;;;3.28;;
75167;SDS011;63748;48.088;11.476;2022-09-25T06:06:07;6.63;;;3.10;;
75167;SDS011;63748;48.088;11.476;2022-09-25T06:08:33;4.43;;;3.50;;
75167;SDS011;63748;48.088;11.476;2022-09-25T06:11:02;4.43;;;3.17;;
75167;SDS011;63748;48.088;11.476;2022-09-25T06:13:29;4.68;;;3.22;;
75167;SDS011;63748;48.088;11.476;2022-09-25T06:16:00;3.92;;;3.53;;
75167;SDS011;63748;48.088;11.476;2022-09-25T06:18:26;6.82;;;3.75;;
75167;SDS011;63748;48.088;11.476;2022-09-25T06:20:58;5.22;;;3.80;;
75167;SDS011;63748;48.088;11.476;2022-09-25T06:23:24;5.45;;;2.90;;
75167;SDS011;63748;48.088;11.476;2022-09-25T06:25:50;6.10;;;4.35;;
75167;SDS011;63748;48.088;11.476;2022-09-25T06:28:16;6.13;;;3.80;;
75167;SDS011;63748;48.088;11.476;2022-09-25T06:30:42;6.00;;;4.13;;
75167;SDS011;63748;48.088;11.476;2022-09-25T06:33:11;6.93;;;4.07;;
75167;SDS011;63748;48.088;11.476;2022-09-25T06:35:41;5.10;;;3.97;;
75167;SDS011;63748;48.088;11.476;2022-09-25T06:38:07;4.85;;;3.70;;
75167;SDS011;63748;48.088;11.476;2022-09-25T06:40:34;5.53;;;4.20;;
75167;SDS011;63748;48.088;11.476;2022-09-25T06:43:02;5.35;;;3.70;;
75167;SDS011;63748;48.088;11.476;2022-09-25T06:45:29;6.45;;;4.65;;
75167;SDS011;63748;48.088;11.476;2022-09-25T06:48:03;5.78;;;4.45;;
75167;SDS011;63748;48.088;11.476;2022-09-25T06:50:39;5.50;;;4.20;;
75167;SDS011;63748;48.088;11.476;2022-09-25T06:53:06;6.60;;;4.18;;
75167;SDS011;63748;48.088;11.476;2022-09-25T06:55:32;5.43;;;4.57;;
75167;SDS011;63748;48.088;11.476;2022-09-25T06:57:59;5.53;;;4.40;;
75167;SDS011;63748;48.088;11.476;2022-09-25T07:00:25;6.50;;;4.05;;
75167;SDS011;63748;48.088;11.476;2022-09-25T07:02:51;5.40;;;4.55;;
75167;SDS011;63748;48.088;11.476;2022-09-25T07:05:36;5.88;;;4.18;;
75167;SDS011;63748;48.088;11.476;2022-09-25T07:08:02;5.57;;;3.55;;
75167;SDS011;63748;48.088;11.476;2022-09-25T07:10:28;28.33;;;21.20;;
75167;SDS011;63748;48.088;11.476;2022-09-25T07:12:54;14.15;;;12.00;;
75167;SDS011;63748;48.088;11.476;2022-09-25T07:15:20;8.93;;;8.02;;
75167;SDS011;63748;48.088;11.476;2022-09-25T07:17:47;16.77;;;14.00;;
75167;SDS011;63748;48.088;11.476;2022-09-25T07:20:13;11.30;;;9.60;;
75167;SDS011;63748;48.088;11.476;2022-09-25T07:22:41;11.68;;;8.57;;
75167;SDS011;63748;48.088;11.476;2022-09-25T07:25:08;10.32;;;6.30;;
75167;SDS011;63748;48.088;11.476;2022-09-25T07:27:35;12.52;;;6.95;;
75167;SDS011;63748;48.088;11.476;2022-09-25T07:30:01;10.10;;;6.75;;
75167;SDS011;63748;48.088;11.476;2022-09-25T07:32:27;12.40;;;6.70;;
75167;SDS011;63748;48.088;11.476;2022-09-25T07:34:55;9.00;;;6.43;;
75167;SDS011;63748;48.088;11.476;2022-09-25T07:37:22;8.60;;;5.53;;
75167;SDS011;63748;48.088;11.476;2022-09-25T07:39:48;7.38;;;5.05;;
75167;SDS011;63748;48.088;11.476;2022-09-25T07:42:14;6.68;;;4.85;;
75167;SDS011;63748;48.088;11.476;2022-09-25T07:44:41;8.60;;;5.72;;
75167;SDS011;63748;48.088;11.476;2022-09-25T07:47:07;9.02;;;6.05;;
75167;SDS011;63748;48.088;11.476;2022-09-25T07:49:37;9.32;;;6.07;;
75167;SDS011;63748;48.088;11.476;2022-09-25T07:52:04;8.20;;;5.88;;
75167;SDS011;63748;48.088;11.476;2022-09-25T07:54:30;8.38;;;6.20;;
75167;SDS011;63748;48.088;11.476;2022-09-25T07:56:58;10.13;;;6.20;;
75167;SDS011;63748;48.088;11.476;2022-09-25T07:59:24;11.73;;;7.32;;
75167;SDS011;63748;48.088;11.476;2022-09-25T08:01:50;9.68;;;6.70;;
75167;SDS011;63748;48.088;11.476;2022-09-25T08:04:16;9.73;;;7.03;;
75167;SDS011;63748;48.088;11.476;2022-09-25T08:06:42;11.68;;;6.85;;
75167;SDS011;63748;48.088;11.476;2022-09-25T08:09:09;15.63;;;8.60;;
75167;SDS011;63748;48.088;11.476;2022-09-25T08:11:36;8.43;;;6.28;;
75167;SDS011;63748;48.088;11.476;2022-09-25T08:14:02;8.82;;;7.07;;
75167;SDS011;63748;48.088;11.476;2022-09-25T08:16:28;8.98;;;6.57;;
75167;SDS011;63748;48.088;11.476;2022-09-25T08:18:54;8.00;;;5.93;;
75167;SDS011;63748;48.088;11.476;2022-09-25T08:21:20;9.00;;;6.15;;
75167;SDS011;63748;48.088;11.476;2022-09-25T08:23:47;8.38;;;6.47;;
75167;SDS011;63748;48.088;11.476;2022-09-25T08:26:14;13.95;;;6.00;;
75167;SDS011;63748;48.088;11.476;2022-09-25T08:28:40;8.70;;;6.25;;
75167;SDS011;63748;48.088;11.476;2022-09-25T08:31:06;10.77;;;6.00;;
75167;SDS011;63748;48.088;11.476;2022-09-25T08:33:33;7.35;;;5.22;;
75167;SDS011;63748;48.088;11.476;2022-09-25T08:36:03;8.15;;;5.97;;
75167;SDS011;63748;48.088;11.476;2022-09-25T08:38:29;8.38;;;5.80;;
75167;SDS011;63748;48.088;11.476;2022-09-25T08:43:30;8.82;;;6.72;;
75167;SDS011;63748;48.088;11.476;2022-09-25T08:45:57;10.20;;;6.88;;
75167;SDS011;63748;48.088;11.476;2022-09-25T08:48:57;9.80;;;6.45;;
75167;SDS011;63748;48.088;11.476;2022-09-25T08:51:29;10.25;;;7.00;;
75167;SDS011;63748;48.088;11.476;2022-09-25T08:53:56;10.25;;;6.90;;
75167;SDS011;63748;48.088;11.476;2022-09-25T08:56:22;9.93;;;6.85;;
75167;SDS011;63748;48.088;11.476;2022-09-25T08:58:50;10.25;;;6.78;;
75167;SDS011;63748;48.088;11.476;2022-09-25T09:01:24;10.32;;;7.07;;
75167;SDS011;63748;48.088;11.476;2022-09-25T09:03:53;11.52;;;7.70;;
75167;SDS011;63748;48.088;11.476;2022-09-25T09:06:22;11.30;;;7.90;;
75167;SDS011;63748;48.088;11.476;2022-09-25T09:09:00;11.88;;;7.80;;
75167;SDS011;63748;48.088;11.476;2022-09-25T09:11:34;10.05;;;7.13;;
75167;SDS011;63748;48.088;11.476;2022-09-25T09:14:03;12.23;;;8.20;;
75167;SDS011;63748;48.088;11.476;2022-09-25T09:16:32;13.77;;;8.35;;
75167;SDS011;63748;48.088;11.476;2022-09-25T09:19:03;11.05;;;7.60;;
75167;SDS011;63748;48.088;11.476;2022-09-25T09:21:34;12.05;;;8.10;;
75167;SDS011;63748;48.088;11.476;2022-09-25T09:32:27;13.32;;;8.07;;
75167;SDS011;63748;48.088;11.476;2022-09-25T09:40:02;14.10;;;8.90;;
75167;SDS011;63748;48.088;11.476;2022-09-25T09:42:53;14.68;;;8.88;;
75167;SDS011;63748;48.088;11.476;2022-09-25T09:45:28;12.90;;;8.45;;
75167;SDS011;63748;48.088;11.476;2022-09-25T09:52:51;14.27;;;8.98;;
75167;SDS011;63748;48.088;11.476;2022-09-25T09:57:49;12.73;;;8.65;;
75167;SDS011;63748;48.088;11.476;2022-09-25T10:00:17;12.30;;;7.95;;
75167;SDS011;63748;48.088;11.476;2022-09-25T10:05:22;12.88;;;8.07;;
75167;SDS011;63748;48.088;11.476;2022-09-25T10:07:49;11.27;;;8.10;;
75167;SDS011;63748;48.088;11.476;2022-09-25T10:10:16;13.00;;;7.78;;
75167;SDS011;63748;48.088;11.476;2022-09-25T10:12:49;13.65;;;9.60;;
75167;SDS011;63748;48.088;11.476;2022-09-25T10:17:48;12.00;;;8.07;;
75167;SDS011;63748;48.088;11.476;2022-09-25T10:20:16;12.15;;;8.55;;
75167;SDS011;63748;48.088;11.476;2022-09-25T10:22:44;12.43;;;8.32;;
75167;SDS011;63748;48.088;11.476;2022-09-25T10:25:11;11.48;;;8.27;;
75167;SDS011;63748;48.088;11.476;2022-09-25T10:27:41;11.52;;;7.95;;
75167;SDS011;63748;48.088;11.476;2022-09-25T10:32:55;11.48;;;7.72;;
75167;SDS011;63748;48.088;11.476;2022-09-25T10:38:04;9.20;;;6.57;;
75167;SDS011;63748;48.088;11.476;2022-09-25T10:40:31;8.82;;;5.97;;
75167;SDS011;63748;48.088;11.476;2022-09-25T10:43:13;8.85;;;5.75;;
75167;SDS011;63748;48.088;11.476;2022-09-25T10:45:39;8.32;;;5.90;;
75167;SDS011;63748;48.088;11.476;2022-09-25T10:51:09;6.75;;;5.22;;
75167;SDS011;63748;48.088;11.476;2022-09-25T10:53:36;6.50;;;5.38;;
75167;SDS011;63748;48.088;11.476;2022-09-25T10:58:47;9.05;;;5.82;;
75167;SDS011;63748;48.088;11.476;2022-09-25T11:01:15;8.00;;;4.78;;
75167;SDS011;63748;48.088;11.476;2022-09-25T11:03:46;5.35;;;4.45;;
75167;SDS011;63748;48.088;11.476;2022-09-25T11:08:48;5.70;;;4.63;;
75167;SDS011;63748;48.088;11.476;2022-09-25T11:11:19;6.05;;;4.32;;
75167;SDS011;63748;48.088;11.476;2022-09-25T11:13:49;6.00;;;4.88;;
75167;SDS011;63748;48.088;11.476;2022-09-25T11:16:16;7.05;;;5.07;;
75167;SDS011;63748;48.088;11.476;2022-09-25T11:24:13;5.45;;;4.43;;
75167;SDS011;63748;48.088;11.476;2022-09-25T11:26:58;7.40;;;5.22;;
75167;SDS011;63748;48.088;11.476;2022-09-25T11:32:03;6.65;;;4.55;;
75167;SDS011;63748;48.088;11.476;2022-09-25T11:37:29;7.97;;;5.13;;
75167;SDS011;63748;48.088;11.476;2022-09-25T11:39:58;6.43;;;4.22;;
75167;SDS011;63748;48.088;11.476;2022-09-25T11:42:54;6.03;;;4.30;;
75167;SDS011;63748;48.088;11.476;2022-09-25T11:45:31;6.20;;;4.55;;
75167;SDS011;63748;48.088;11.476;2022-09-25T11:48:06;5.30;;;4.30;;
75167;SDS011;63748;48.088;11.476;2022-09-25T11:50:36;5.30;;;4.13;;
75167;SDS011;63748;48.088;11.476;2022-09-25T12:01:14;4.57;;;3.83;;
75167;SDS011;63748;48.088;11.476;2022-09-25T12:21:31;6.68;;;4.80;;
75167;SDS011;63748;48.088;11.476;2022-09-25T12:24:08;8.35;;;5.25;;
75167;SDS011;63748;48.088;11.476;2022-09-25T12:29:26;8.25;;;5.90;;
75167;SDS011;63748;48.088;11.476;2022-09-25T12:42:29;6.90;;;5.22;;
75167;SDS011;63748;48.088;11.476;2022-09-25T12:47:11;7.47;;;5.25;;
75167;SDS011;63748;48.088;11.476;2022-09-25T12:49:46;8.60;;;5.43;;
75167;SDS011;63748;48.088;11.476;2022-09-25T12:52:17;7.20;;;4.75;;
75167;SDS011;63748;48.088;11.476;2022-09-25T12:55:01;10.35;;;5.72;;
75167;SDS011;63748;48.088;11.476;2022-09-25T12:57:34;7.47;;;5.45;;
75167;SDS011;63748;48.088;11.476;2022-09-25T13:00:11;7.70;;;5.10;;
75167;SDS011;63748;48.088;11.476;2022-09-25T13:02:45;7.30;;;5.07;;
75167;SDS011;63748;48.088;11.476;2022-09-25T13:10:36;9.73;;;5.70;;
75167;SDS011;63748;48.088;11.476;2022-09-25T13:13:04;7.63;;;4.93;;
75167;SDS011;63748;48.088;11.476;2022-09-25T13:15:34;7.82;;;5.35;;
75167;SDS011;63748;48.088;11.476;2022-09-25T13:23:15;8.18;;;5.18;;
75167;SDS011;63748;48.088;11.476;2022-09-25T13:28:08;8.73;;;5.80;;
75167;SDS011;63748;48.088;11.476;2022-09-25T13:30:38;10.35;;;6.57;;
75167;SDS011;63748;48.088;11.476;2022-09-25T13:33:04;10.10;;;6.53;;
75167;SDS011;63748;48.088;11.476;2022-09-25T13:35:31;11.27;;;6.38;;
75167;SDS011;63748;48.088;11.476;2022-09-25T13:38:14;9.98;;;6.18;;
75167;SDS011;63748;48.088;11.476;2022-09-25T13:41:08;11.23;;;6.90;;
75167;SDS011;63748;48.088;11.476;2022-09-25T13:43:34;8.18;;;5.68;;
75167;SDS011;63748;48.088;11.476;2022-09-25T13:48:47;10.85;;;6.53;;
75167;SDS011;63748;48.088;11.476;2022-09-25T13:56:16;11.70;;;6.93;;
75167;SDS011;63748;48.088;11.476;2022-09-25T13:59:33;12.30;;;6.55;;
75167;SDS011;63748;48.088;11.476;2022-09-25T14:01:46;10.45;;;6.30;;
75167;SDS011;63748;48.088;11.476;2022-09-25T14:06:39;10.98;;;6.90;;
75167;SDS011;63748;48.088;11.476;2022-09-25T14:09:27;17.58;;;6.70;;
75167;SDS011;63748;48.088;11.476;2022-09-25T14:14:25;11.75;;;6.53;;
75167;SDS011;63748;48.088;11.476;2022-09-25T14:16:53;11.15;;;7.35;;
75167;SDS011;63748;48.088;11.476;2022-09-25T14:19:23;11.20;;;8.35;;
75167;SDS011;63748;48.088;11.476;2022-09-25T14:21:51;10.57;;;6.82;;
75167;SDS011;63748;48.088;11.476;2022-09-25T14:24:19;14.88;;;9.27;;
75167;SDS011;63748;48.088;11.476;2022-09-25T14:26:46;11.55;;;7.80;;
75167;SDS011;63748;48.088;11.476;2022-09-25T14:29:14;11.13;;;8.10;;
75167;SDS011;63748;48.088;11.476;2022-09-25T14:31:54;12.73;;;7.15;;
75167;SDS011;63748;48.088;11.476;2022-09-25T14:47:26;10.77;;;7.45;;
75167;SDS011;63748;48.088;11.476;2022-09-25T14:49:54;11.40;;;8.55;;
75167;SDS011;63748;48.088;11.476;2022-09-25T14:52:24;11.48;;;7.97;;
75167;SDS011;63748;48.088;11.476;2022-09-25T14:54:51;12.00;;;7.65;;
75167;SDS011;63748;48.088;11.476;2022-09-25T14:57:23;10.68;;;7.25;;
75167;SDS011;63748;48.088;11.476;2022-09-25T14:59:54;11.15;;;7.18;;
75167;SDS011;63748;48.088;11.476;2022-09-25T15:02:21;10.98;;;7.63;;
75167;SDS011;63748;48.088;11.476;2022-09-25T15:09:42;10.32;;;6.80;;
75167;SDS011;63748;48.088;11.476;2022-09-25T15:12:25;10.88;;;6.70;;
75167;SDS011;63748;48.088;11.476;2022-09-25T15:15:12;10.55;;;7.30;;
75167;SDS011;63748;48.088;11.476;2022-09-25T15:17:45;10.35;;;6.97;;
75167;SDS011;63748;48.088;11.476;2022-09-25T15:20:15;10.82;;;6.50;;
75167;SDS011;63748;48.088;11.476;2022-09-25T15:22:45;11.30;;;6.85;;
75167;SDS011;63748;48.088;11.476;2022-09-25T15:25:14;8.45;;;6.80;;
75167;SDS011;63748;48.088;11.476;2022-09-25T15:27:42;9.77;;;6.50;;
75167;SDS011;63748;48.088;11.476;2022-09-25T15:30:17;11.10;;;7.50;;
75167;SDS011;63748;48.088;11.476;2022-09-25T15:32:45;12.35;;;7.32;;
75167;SDS011;63748;48.088;11.476;2022-09-25T15:37:42;16.45;;;10.40;;
75167;SDS011;63748;48.088;11.476;2022-09-25T15:42:45;15.27;;;9.02;;
75167;SDS011;63748;48.088;11.476;2022-09-25T15:47:56;25.58;;;15.23;;
75167;SDS011;63748;48.088;11.476;2022-09-25T15:50:23;15.55;;;10.57;;
75167;SDS011;63748;48.088;11.476;2022-09-25T15:52:52;16.92;;;10.85;;
75167;SDS011;63748;48.088;11.476;2022-09-25T15:55:18;14.32;;;9.25;;
75167;SDS011;63748;48.088;11.476;2022-09-25T15:57:45;11.43;;;8.35;;
75167;SDS011;63748;48.088;11.476;2022-09-25T16:00:22;11.57;;;7.28;;
75167;SDS011;63748;48.088;11.476;2022-09-25T16:03:15;13.90;;;7.68;;
75167;SDS011;63748;48.088;11.476;2022-09-25T16:06:00;13.10;;;7.53;;
75167;SDS011;63748;48.088;11.476;2022-09-25T16:13:36;12.70;;;8.25;;
75167;SDS011;63748;48.088;11.476;2022-09-25T16:16:03;13.10;;;8.02;;
75167;SDS011;63748;48.088;11.476;2022-09-25T16:18:41;12.40;;;7.78;;
75167;SDS011;63748;48.088;11.476;2022-09-25T16:23:52;54.35;;;24.27;;
75167;SDS011;63748;48.088;11.476;2022-09-25T16:26:20;19.13;;;10.15;;
75167;SDS011;63748;48.088;11.476;2022-09-25T16:28:50;18.25;;;10.65;;
75167;SDS011;63748;48.088;11.476;2022-09-25T16:31:19;14.52;;;8.52;;
75167;SDS011;63748;48.088;11.476;2022-09-25T16:33:49;12.63;;;8.23;;
75167;SDS011;63748;48.088;11.476;2022-09-25T16:36:16;10.98;;;7.88;;
75167;SDS011;63748;48.088;11.476;2022-09-25T16:39:01;10.55;;;7.93;;
75167;SDS011;63748;48.088;11.476;2022-09-25T16:41:27;10.90;;;7.45;;
75167;SDS011;63748;48.088;11.476;2022-09-25T16:46:39;10.27;;;6.60;;
75167;SDS011;63748;48.088;11.476;2022-09-25T16:49:05;12.25;;;6.68;;
75167;SDS011;63748;48.088;11.476;2022-09-25T16:51:31;10.65;;;7.22;;
75167;SDS011;63748;48.088;11.476;2022-09-25T16:53:58;11.63;;;7.38;;
75167;SDS011;63748;48.088;11.476;2022-09-25T16:56:29;12.07;;;8.00;;
75167;SDS011;63748;48.088;11.476;2022-09-25T16:58:55;12.55;;;6.70;;
75167;SDS011;63748;48.088;11.476;2022-09-25T17:01:23;11.70;;;7.53;;
75167;SDS011;63748;48.088;11.476;2022-09-25T17:03:49;12.18;;;6.75;;
75167;SDS011;63748;48.088;11.476;2022-09-25T17:06:19;10.77;;;7.25;;
75167;SDS011;63748;48.088;11.476;2022-09-25T17:08:45;10.20;;;6.78;;
75167;SDS011;63748;48.088;11.476;2022-09-25T17:11:12;10.23;;;6.80;;
75167;SDS011;63748;48.088;11.476;2022-09-25T17:13:38;12.52;;;6.78;;
75167;SDS011;63748;48.088;11.476;2022-09-25T17:16:05;10.93;;;7.00;;
75167;SDS011;63748;48.088;11.476;2022-09-25T17:18:31;10.38;;;6.95;;
75167;SDS011;63748;48.088;11.476;2022-09-25T17:20:58;13.07;;;8.00;;
75167;SDS011;63748;48.088;11.476;2022-09-25T17:23:24;13.98;;;8.50;;
75167;SDS011;63748;48.088;11.476;2022-09-25T17:25:55;10.43;;;7.07;;
75167;SDS011;63748;48.088;11.476;2022-09-25T17:28:25;10.32;;;6.80;;
75167;SDS011;63748;48.088;11.476;2022-09-25T17:30:51;12.27;;;7.40;;
75167;SDS011;63748;48.088;11.476;2022-09-25T17:33:18;10.40;;;7.53;;
75167;SDS011;63748;48.088;11.476;2022-09-25T17:35:56;11.55;;;8.20;;
75167;SDS011;63748;48.088;11.476;2022-09-25T17:38:23;12.07;;;8.27;;
75167;SDS011;63748;48.088;11.476;2022-09-25T17:40:49;14.35;;;9.73;;
75167;SDS011;63748;48.088;11.476;2022-09-25T17:43:16;12.95;;;7.82;;
75167;SDS011;63748;48.088;11.476;2022-09-25T17:48:15;13.00;;;9.80;;
75167;SDS011;63748;48.088;11.476;2022-09-25T17:50:48;12.70;;;8.05;;
75167;SDS011;63748;48.088;11.476;2022-09-25T17:53:15;13.35;;;10.38;;
75167;SDS011;63748;48.088;11.476;2022-09-25T17:55:42;15.50;;;8.55;;
75167;SDS011;63748;48.088;11.476;2022-09-25T17:58:08;14.55;;;8.90;;
75167;SDS011;63748;48.088;11.476;2022-09-25T18:00:34;11.02;;;7.43;;